London, Minnesota
Current Conditions -  °F | °C
As of 11:11 AM on Thursday 18 Dec 2014 (Local Time) from KAEL Reporting Station
Scattered Clouds Scattered Clouds  
Wind Chill: 19°   Ceiling: Unl
Heat Index: 19°   Visibility: 7mi
Dew Point: 14°   Wind: 0mph
Humidity: 80%   Direction: NA
Pressure: 30.27"   Gusts: NA
Location:  43.5439°N, 93.1707°W
Report Text: KAEL 181711Z AUTO 00000KT 7SM SCT014 M07/M10 A3027 RMK AO2
Loading
Personal Weather Stations






























Interactive Weather Map New forecast layout! Learn more

10-Day Weather Forecast

Advertisements
Track Severe Weather on mobile